Time;durP1;ratioP1;P1;durP2;ratioP2;P2;SDS_P1;SDS_P2;PMS_P1;PMS_P2;Temp;Humidity;BMP_temperature;BMP_pressure;BME280_temperature;BME280_humidity;BME280_pressure;Samples;Min_cycle;Max_cycle;Signal;HPM_P1;HPM_P2
2023/12/12 00:00:20;;;;;;;0.00;0.00;;;12.20;99.90;;;;;;5049348;28;20107;-78
2023/12/12 00:02:45;;;;;;;0.10;0.10;;;12.10;99.90;;;;;;5048456;28;20032;-77
2023/12/12 00:05:13;;;;;;;0.13;0.13;;;12.10;99.90;;;;;;5030944;28;20036;-77
2023/12/12 00:07:39;;;;;;;3.40;1.65;;;12.00;99.90;;;;;;5049520;28;20013;-77
2023/12/12 00:10:05;;;;;;;0.37;0.37;;;12.00;99.90;;;;;;5049841;28;20025;-77
2023/12/12 00:12:31;;;;;;;0.10;0.10;;;12.00;99.90;;;;;;5048731;28;20036;-77
2023/12/12 00:14:57;;;;;;;0.10;0.10;;;12.00;99.90;;;;;;5063042;28;20021;-78
2023/12/12 00:17:23;;;;;;;2.03;1.87;;;12.00;99.90;;;;;;5048163;28;20017;-77
2023/12/12 00:19:48;;;;;;;0.00;0.00;;;12.00;99.90;;;;;;5047289;28;20024;-78
2023/12/12 00:22:14;;;;;;;0.10;0.10;;;12.00;99.90;;;;;;5062597;28;20032;-78
2023/12/12 00:24:39;;;;;;;0.00;0.00;;;12.00;99.90;;;;;;5029612;28;20869;-78
2023/12/12 00:27:05;;;;;;;0.00;0.00;;;11.90;99.90;;;;;;5048518;28;20104;-78
2023/12/12 00:29:35;;;;;;;0.00;0.00;;;11.90;99.90;;;;;;5029981;28;20087;-77
2023/12/12 00:32:01;;;;;;;0.10;0.10;;;12.00;99.90;;;;;;5047989;28;21412;-77
2023/12/12 00:34:27;;;;;;;0.00;0.00;;;11.90;99.90;;;;;;5047405;28;20088;-78
2023/12/12 00:36:52;;;;;;;0.10;0.10;;;11.80;99.90;;;;;;5047800;28;20061;-77
2023/12/12 00:39:18;;;;;;;0.10;0.10;;;11.80;99.90;;;;;;5048072;28;20044;-79
2023/12/12 00:41:44;;;;;;;0.00;0.00;;;11.70;99.90;;;;;;5051229;28;20025;-80
2023/12/12 00:44:09;;;;;;;0.10;0.10;;;11.70;99.90;;;;;;5029939;28;20690;-80
2023/12/12 00:46:35;;;;;;;0.10;0.10;;;11.60;99.90;;;;;;5047713;28;20025;-79
2023/12/12 00:49:01;;;;;;;0.10;0.10;;;11.60;99.90;;;;;;5030327;28;20029;-80
2023/12/12 00:51:26;;;;;;;0.10;0.10;;;11.70;99.90;;;;;;5042099;28;20061;-78
2023/12/12 00:53:52;;;;;;;0.10;0.10;;;11.60;99.90;;;;;;5026060;28;20022;-78
2023/12/12 00:56:18;;;;;;;0.00;0.00;;;11.60;99.90;;;;;;5046594;28;20033;-79
2023/12/12 00:58:43;;;;;;;0.10;0.10;;;11.70;99.90;;;;;;5047031;28;20033;-78
2023/12/12 01:01:11;;;;;;;0.17;0.17;;;11.60;99.90;;;;;;5045915;28;20040;-78
2023/12/12 01:03:38;;;;;;;0.00;0.00;;;11.70;99.90;;;;;;5047605;28;20486;-78
2023/12/12 01:06:03;;;;;;;0.08;0.08;;;11.60;99.90;;;;;;5044057;28;20033;-78
2023/12/12 01:08:29;;;;;;;0.10;0.10;;;11.60;99.90;;;;;;5045782;28;20083;-78
2023/12/12 01:10:55;;;;;;;0.43;0.43;;;11.50;99.90;;;;;;5046735;28;20064;-77
2023/12/12 01:13:20;;;;;;;0.00;0.00;;;11.50;99.90;;;;;;5046116;28;20033;-77
2023/12/12 01:15:46;;;;;;;0.10;0.10;;;11.50;99.90;;;;;;5046545;28;20082;-78
2023/12/12 01:18:12;;;;;;;0.00;0.00;;;11.50;99.90;;;;;;5046388;28;20452;-78
2023/12/12 01:20:37;;;;;;;0.10;0.10;;;11.40;99.90;;;;;;5045730;28;20033;-78
2023/12/12 01:23:03;;;;;;;0.10;0.10;;;11.30;99.90;;;;;;5047147;28;20485;-77
2023/12/12 01:25:30;;;;;;;0.10;0.10;;;11.30;99.90;;;;;;5045078;28;20029;-78
2023/12/12 01:27:55;;;;;;;0.45;0.45;;;11.30;99.90;;;;;;5028601;28;20587;-78
2023/12/12 01:30:21;;;;;;;0.10;0.10;;;11.20;99.90;;;;;;5045845;28;20128;-77
2023/12/12 01:32:46;;;;;;;0.00;0.00;;;11.30;99.90;;;;;;5043988;28;20037;-77
2023/12/12 01:35:12;;;;;;;0.20;0.20;;;11.30;99.90;;;;;;5046767;28;20032;-79
2023/12/12 01:37:38;;;;;;;0.00;0.00;;;11.40;99.90;;;;;;5028759;28;20029;-77
2023/12/12 01:40:04;;;;;;;0.00;0.00;;;11.40;99.90;;;;;;5046775;28;20021;-78
2023/12/12 01:42:30;;;;;;;0.25;0.25;;;11.30;99.90;;;;;;5045647;28;20041;-78
2023/12/12 01:44:56;;;;;;;0.00;0.00;;;11.30;99.90;;;;;;5046201;28;20029;-78
2023/12/12 01:47:22;;;;;;;0.10;0.10;;;11.40;99.90;;;;;;5027394;28;20033;-78
2023/12/12 01:49:48;;;;;;;0.10;0.10;;;11.40;99.90;;;;;;5028513;28;20593;-78
2023/12/12 01:52:14;;;;;;;0.08;0.08;;;11.40;99.90;;;;;;5028527;28;20043;-78
2023/12/12 01:54:44;;;;;;;0.00;0.00;;;11.50;99.90;;;;;;5045891;28;20041;-79
2023/12/12 01:57:13;;;;;;;0.10;0.10;;;11.50;99.90;;;;;;5045537;28;20287;-79
2023/12/12 01:59:39;;;;;;;0.00;0.00;;;11.50;99.90;;;;;;5046171;28;20029;-79
2023/12/12 02:02:05;;;;;;;0.00;0.00;;;11.50;99.90;;;;;;5044923;28;20482;-78
2023/12/12 02:04:31;;;;;;;0.00;0.00;;;11.50;99.90;;;;;;5045712;28;20029;-79
2023/12/12 02:06:59;;;;;;;0.00;0.00;;;11.40;99.90;;;;;;5046013;28;20045;-77
2023/12/12 02:09:26;;;;;;;0.00;0.00;;;11.40;99.90;;;;;;5043669;28;20144;-79
2023/12/12 02:11:52;;;;;;;0.10;0.10;;;11.40;99.90;;;;;;5044320;28;20029;-78
2023/12/12 02:14:18;;;;;;;0.00;0.00;;;11.40;99.90;;;;;;5043249;28;20385;-79
2023/12/12 02:16:43;;;;;;;0.00;0.00;;;11.50;99.90;;;;;;5046055;28;20140;-79
2023/12/12 02:19:09;;;;;;;0.00;0.00;;;11.50;99.90;;;;;;5045658;28;20075;-80
2023/12/12 02:21:35;;;;;;;0.10;0.10;;;11.50;99.90;;;;;;5027706;28;20060;-80
2023/12/12 02:24:00;;;;;;;0.10;0.10;;;11.50;99.90;;;;;;5046171;28;20021;-80
2023/12/12 02:26:26;;;;;;;3.10;0.80;;;11.50;99.90;;;;;;5045486;28;20036;-79
2023/12/12 02:28:52;;;;;;;0.10;0.10;;;11.40;99.90;;;;;;5032845;28;20033;-79
2023/12/12 02:31:18;;;;;;;0.20;0.20;;;11.30;99.90;;;;;;5026549;28;20067;-78
2023/12/12 02:33:43;;;;;;;0.30;0.30;;;11.30;99.90;;;;;;5045700;28;20111;-78
2023/12/12 02:36:09;;;;;;;0.10;0.10;;;11.30;99.90;;;;;;5059455;28;20033;-79
2023/12/12 02:38:35;;;;;;;0.00;0.00;;;11.20;99.90;;;;;;5060134;28;20036;-79
2023/12/12 02:41:00;;;;;;;0.10;0.10;;;11.20;99.90;;;;;;5044733;28;20028;-79
2023/12/12 02:43:27;;;;;;;0.10;0.10;;;11.20;99.90;;;;;;5027704;28;20116;-79
2023/12/12 02:45:53;;;;;;;0.10;0.10;;;11.20;99.90;;;;;;5045771;28;20029;-79
2023/12/12 02:48:19;;;;;;;0.10;0.10;;;11.20;99.90;;;;;;5060386;28;20029;-79
2023/12/12 02:50:44;;;;;;;0.03;0.03;;;11.30;99.90;;;;;;5045591;28;20138;-79
2023/12/12 02:53:10;;;;;;;0.10;0.10;;;11.20;99.90;;;;;;5028263;28;20035;-78
2023/12/12 02:55:36;;;;;;;0.10;0.10;;;11.30;99.90;;;;;;5027549;28;20029;-77
2023/12/12 02:58:01;;;;;;;0.10;0.10;;;11.40;99.90;;;;;;5045522;28;20500;-78
2023/12/12 03:00:27;;;;;;;0.10;0.10;;;11.40;99.90;;;;;;5049267;28;20037;-79
2023/12/12 03:02:52;;;;;;;0.07;0.07;;;11.30;99.90;;;;;;5034669;28;20032;-80
2023/12/12 03:05:18;;;;;;;0.07;0.07;;;11.20;99.90;;;;;;5049535;28;20087;-80
2023/12/12 03:07:44;;;;;;;0.10;0.10;;;11.20;99.90;;;;;;5049457;28;20025;-80
2023/12/12 03:10:09;;;;;;;0.10;0.10;;;11.20;99.90;;;;;;5048776;28;20566;-80
2023/12/12 03:12:35;;;;;;;0.00;0.00;;;11.20;99.90;;;;;;5030844;28;20033;-79
2023/12/12 03:15:01;;;;;;;0.03;0.03;;;11.20;99.90;;;;;;5044125;28;20032;-78
2023/12/12 03:17:26;;;;;;;0.10;0.10;;;11.10;99.90;;;;;;5049873;28;20103;-79
2023/12/12 03:19:52;;;;;;;0.10;0.10;;;11.10;99.90;;;;;;5048585;28;20508;-78
2023/12/12 03:22:18;;;;;;;0.10;0.10;;;11.10;99.90;;;;;;5045194;28;20055;-78
2023/12/12 03:24:43;;;;;;;0.00;0.00;;;11.10;99.90;;;;;;5030673;28;20029;-78
2023/12/12 03:27:09;;;;;;;0.00;0.00;;;11.00;99.90;;;;;;5043811;28;20112;-78
2023/12/12 03:29:35;;;;;;;0.00;0.00;;;11.00;99.90;;;;;;5030301;28;20144;-80
2023/12/12 03:32:01;;;;;;;0.00;0.00;;;11.00;99.90;;;;;;5044267;28;20120;-79
2023/12/12 03:34:27;;;;;;;0.00;0.00;;;11.00;99.90;;;;;;5037776;28;20128;-79
2023/12/12 03:36:52;;;;;;;0.10;0.10;;;11.00;99.90;;;;;;5028816;28;20044;-79
2023/12/12 03:39:18;;;;;;;0.10;0.10;;;10.90;99.90;;;;;;5046957;28;20087;-79
2023/12/12 03:41:44;;;;;;;0.00;0.00;;;11.00;99.90;;;;;;5041407;28;20842;-79
2023/12/12 03:44:09;;;;;;;0.10;0.10;;;11.00;99.90;;;;;;5046454;28;20143;-79
2023/12/12 03:46:35;;;;;;;0.00;0.00;;;11.10;99.90;;;;;;5049100;28;20017;-79
2023/12/12 03:49:01;;;;;;;0.10;0.10;;;11.10;99.90;;;;;;5031860;28;20021;-79
2023/12/12 03:51:26;;;;;;;0.10;0.10;;;11.20;99.90;;;;;;5031520;28;20542;-79
2023/12/12 03:53:52;;;;;;;0.10;0.10;;;11.20;99.90;;;;;;5048814;28;20516;-78
2023/12/12 03:56:17;;;;;;;0.03;0.03;;;11.20;99.90;;;;;;5048943;28;20064;-80
2023/12/12 03:58:43;;;;;;;0.00;0.00;;;11.20;99.90;;;;;;5048188;28;20115;-80
2023/12/12 04:01:09;;;;;;;0.10;0.10;;;11.20;99.90;;;;;;5048968;28;20064;-79
2023/12/12 04:03:34;;;;;;;0.00;0.00;;;11.20;99.90;;;;;;5046374;28;20071;-79
2023/12/12 04:06:04;;;;;;;0.10;0.10;;;11.20;99.90;;;;;;5048328;28;20472;-79
2023/12/12 04:08:29;;;;;;;0.03;0.03;;;11.30;99.90;;;;;;5048279;28;20033;-79
2023/12/12 04:10:55;;;;;;;0.10;0.10;;;11.30;99.90;;;;;;5046758;28;20032;-79
2023/12/12 04:13:20;;;;;;;0.00;0.00;;;11.30;99.90;;;;;;5046345;28;20041;-79
2023/12/12 04:15:46;;;;;;;0.07;0.07;;;11.40;99.90;;;;;;5047515;28;20555;-78
2023/12/12 04:18:12;;;;;;;0.03;0.03;;;11.40;99.90;;;;;;5047597;28;20063;-80
2023/12/12 04:20:37;;;;;;;0.20;0.20;;;11.40;99.90;;;;;;5047487;28;20037;-79
2023/12/12 04:23:04;;;;;;;0.50;0.50;;;11.30;99.90;;;;;;5047600;28;20891;-80
2023/12/12 04:25:29;;;;;;;0.10;0.10;;;11.40;99.90;;;;;;5047767;28;20025;-80
2023/12/12 04:27:55;;;;;;;4.70;2.07;;;11.40;99.90;;;;;;5047919;28;20478;-80
2023/12/12 04:30:22;;;;;;;0.00;0.00;;;11.40;99.90;;;;;;5046671;28;20053;-80
2023/12/12 04:32:47;;;;;;;0.00;0.00;;;11.40;99.90;;;;;;5046886;28;21765;-81
2023/12/12 04:35:13;;;;;;;0.10;0.10;;;11.40;99.90;;;;;;5047511;28;20029;-80
2023/12/12 04:37:38;;;;;;;0.10;0.10;;;11.40;99.90;;;;;;5047692;28;20389;-80
2023/12/12 04:40:04;;;;;;;0.10;0.10;;;11.40;99.90;;;;;;5047219;28;20443;-81
2023/12/12 04:42:30;;;;;;;0.10;0.10;;;11.40;99.90;;;;;;5034581;28;20816;-80
2023/12/12 04:44:56;;;;;;;0.20;0.20;;;11.40;99.90;;;;;;5047880;28;20267;-80
2023/12/12 04:47:21;;;;;;;0.00;0.00;;;11.40;99.90;;;;;;5035279;28;20036;-79
2023/12/12 04:49:47;;;;;;;0.10;0.10;;;11.30;99.90;;;;;;5030820;28;20507;-80
2023/12/12 04:52:13;;;;;;;0.87;0.87;;;11.30;99.90;;;;;;5029505;28;20891;-80
2023/12/12 04:54:39;;;;;;;2.27;1.70;;;11.20;99.90;;;;;;5029350;28;20075;-80
2023/12/12 04:57:04;;;;;;;0.00;0.00;;;11.20;99.90;;;;;;5047948;28;20502;-80
2023/12/12 04:59:30;;;;;;;0.20;0.20;;;11.20;99.90;;;;;;5042691;28;20040;-80
2023/12/12 05:01:56;;;;;;;0.10;0.10;;;11.30;99.90;;;;;;5042410;28;20029;-79
2023/12/12 05:04:21;;;;;;;0.00;0.00;;;11.20;99.90;;;;;;5047979;28;20044;-80
2023/12/12 05:06:47;;;;;;;0.03;0.03;;;11.20;99.90;;;;;;5030012;28;20093;-81
2023/12/12 05:09:13;;;;;;;0.10;0.10;;;11.30;99.90;;;;;;5029498;28;20202;-80
2023/12/12 05:11:38;;;;;;;0.10;0.10;;;11.20;99.90;;;;;;5029140;28;20036;-80
2023/12/12 05:14:06;;;;;;;1.30;0.63;;;11.30;99.90;;;;;;5044817;28;20063;-80
2023/12/12 05:16:32;;;;;;;0.10;0.10;;;11.30;99.90;;;;;;5046831;28;20163;-81
2023/12/12 05:18:58;;;;;;;0.00;0.00;;;11.20;99.90;;;;;;5046295;28;20040;-80
2023/12/12 05:21:24;;;;;;;0.10;0.10;;;11.30;99.90;;;;;;5046304;28;20624;-80
2023/12/12 05:23:51;;;;;;;0.00;0.00;;;11.20;99.90;;;;;;5047363;28;20286;-80
2023/12/12 05:26:19;;;;;;;0.10;0.10;;;11.20;99.90;;;;;;5046791;28;20036;-82
2023/12/12 05:28:45;;;;;;;0.10;0.10;;;11.30;99.90;;;;;;5029314;28;20021;-80
2023/12/12 05:31:11;;;;;;;0.10;0.10;;;11.30;99.90;;;;;;5031153;28;20069;-80
2023/12/12 05:33:37;;;;;;;0.60;0.60;;;11.30;99.90;;;;;;5032214;28;22098;-80
2023/12/12 05:36:03;;;;;;;2.57;0.93;;;11.40;99.90;;;;;;5047001;28;20033;-80
2023/12/12 05:38:29;;;;;;;0.20;0.20;;;11.40;99.90;;;;;;5046703;28;20029;-82
2023/12/12 05:40:56;;;;;;;0.10;0.10;;;11.40;99.90;;;;;;5029234;28;20114;-81
2023/12/12 05:43:21;;;;;;;;;;;11.40;99.90;;;;;;5029519;28;20025;-82
2023/12/12 05:45:47;;;;;;;1.10;1.10;;;11.40;99.90;;;;;;5044966;28;20395;-83
2023/12/12 05:48:13;;;;;;;0.10;0.10;;;11.40;99.90;;;;;;5061435;28;21012;-83
2023/12/12 05:50:39;;;;;;;0.00;0.00;;;11.40;99.90;;;;;;5028688;28;20039;-85
2023/12/12 05:53:04;;;;;;;0.10;0.10;;;11.40;99.90;;;;;;5028232;28;20028;-82
2023/12/12 05:55:30;;;;;;;0.00;0.00;;;11.40;99.90;;;;;;5046364;28;20503;-83
2023/12/12 05:57:56;;;;;;;0.10;0.10;;;11.40;99.90;;;;;;5029837;28;20068;-81
2023/12/12 06:00:21;;;;;;;0.00;0.00;;;11.40;99.90;;;;;;5027800;28;20097;-81
2023/12/12 06:02:48;;;;;;;0.00;0.00;;;11.40;99.90;;;;;;5030899;28;20029;-82
2023/12/12 06:05:13;;;;;;;0.00;0.00;;;11.40;99.90;;;;;;5045528;28;20088;-81
2023/12/12 06:07:41;;;;;;;0.10;0.10;;;11.40;99.90;;;;;;5045669;28;20566;-81
2023/12/12 06:10:08;;;;;;;0.03;0.03;;;11.50;99.90;;;;;;5027848;28;20036;-84
2023/12/12 06:12:34;;;;;;;0.10;0.10;;;11.50;99.90;;;;;;5027837;28;20447;-85
2023/12/12 06:15:00;;;;;;;0.00;0.00;;;11.50;99.90;;;;;;5030206;28;20037;-84
2023/12/12 06:17:26;;;;;;;0.00;0.00;;;11.40;99.90;;;;;;5045445;28;20075;-85
2023/12/12 06:19:52;;;;;;;0.00;0.00;;;11.50;99.90;;;;;;5045260;28;20067;-89
2023/12/12 06:22:18;;;;;;;0.10;0.10;;;11.50;99.90;;;;;;5026149;28;20033;-87
2023/12/12 06:24:45;;;;;;;0.10;0.10;;;11.50;99.90;;;;;;5045697;28;20506;-82
2023/12/12 06:27:12;;;;;;;0.03;0.03;;;11.50;99.90;;;;;;5027932;28;20036;-81
2023/12/12 06:29:38;;;;;;;0.03;0.03;;;11.50;99.90;;;;;;5045211;28;20021;-81
2023/12/12 06:32:04;;;;;;;0.10;0.10;;;11.50;99.90;;;;;;5045940;28;20057;-80
2023/12/12 06:34:29;;;;;;;0.00;0.00;;;11.50;99.90;;;;;;5043582;28;20090;-80
2023/12/12 06:36:55;;;;;;;0.10;0.10;;;11.50;99.90;;;;;;5031799;28;20032;-81
2023/12/12 06:39:21;;;;;;;0.00;0.00;;;11.40;99.90;;;;;;5046117;28;20036;-81
2023/12/12 06:41:46;;;;;;;0.00;0.00;;;11.40;99.90;;;;;;5045048;28;20081;-83
2023/12/12 06:44:13;;;;;;;0.00;0.00;;;11.50;99.90;;;;;;5046036;28;20033;-81
2023/12/12 06:46:39;;;;;;;0.08;0.08;;;11.40;99.90;;;;;;5045407;28;20028;-82
2023/12/12 06:49:06;;;;;;;0.10;0.10;;;11.40;99.90;;;;;;5045823;28;20037;-80
2023/12/12 06:51:32;;;;;;;0.35;0.30;;;11.40;99.90;;;;;;5046162;28;20092;-80
2023/12/12 06:53:58;;;;;;;0.00;0.00;;;11.40;99.90;;;;;;5031402;28;20056;-83
2023/12/12 06:56:25;;;;;;;0.00;0.00;;;11.40;99.90;;;;;;5027497;28;20065;-80
2023/12/12 06:58:51;;;;;;;0.00;0.00;;;11.40;99.90;;;;;;5044100;28;20032;-84
2023/12/12 07:01:17;;;;;;;0.10;0.10;;;11.40;99.90;;;;;;5045819;28;20036;-81
2023/12/12 07:03:43;;;;;;;0.00;0.00;;;11.30;99.90;;;;;;5046610;28;20036;-81
2023/12/12 07:06:09;;;;;;;0.00;0.00;;;11.40;99.90;;;;;;5045997;28;20033;-82
2023/12/12 07:08:35;;;;;;;0.10;0.10;;;11.40;99.90;;;;;;5029102;28;20021;-81
2023/12/12 07:11:01;;;;;;;0.00;0.00;;;11.30;99.90;;;;;;5045304;28;20135;-81
2023/12/12 07:13:26;;;;;;;0.00;0.00;;;11.30;99.90;;;;;;5035189;28;20366;-81
2023/12/12 07:15:52;;;;;;;0.20;0.20;;;11.30;99.90;;;;;;5046220;28;20806;-81
2023/12/12 07:18:18;;;;;;;0.10;0.10;;;11.40;99.90;;;;;;5028004;28;20037;-81
2023/12/12 07:20:44;;;;;;;0.98;0.60;;;11.40;99.90;;;;;;5044535;28;20555;-80
2023/12/12 07:23:10;;;;;;;0.00;0.00;;;11.40;99.90;;;;;;5027783;28;20127;-80
2023/12/12 07:25:36;;;;;;;0.13;0.13;;;11.50;99.90;;;;;;5037395;28;20207;-83
2023/12/12 07:28:02;;;;;;;0.00;0.00;;;11.40;99.90;;;;;;5046091;28;20029;-83
2023/12/12 07:30:28;;;;;;;0.10;0.10;;;11.50;99.90;;;;;;5046794;28;20465;-87
2023/12/12 07:32:55;;;;;;;0.00;0.00;;;11.50;99.90;;;;;;5029481;28;20025;-80
2023/12/12 07:35:20;;;;;;;0.10;0.10;;;11.50;99.90;;;;;;5042777;28;20032;-80
2023/12/12 07:37:46;;;;;;;0.07;0.07;;;11.50;99.90;;;;;;5026797;28;20036;-80
2023/12/12 07:40:13;;;;;;;0.00;0.00;;;11.50;99.90;;;;;;5045771;28;20029;-81
2023/12/12 07:42:39;;;;;;;0.00;0.00;;;11.50;99.90;;;;;;5045911;28;20115;-80
2023/12/12 07:45:06;;;;;;;0.10;0.10;;;11.50;99.90;;;;;;5048022;28;20111;-80
2023/12/12 07:47:32;;;;;;;0.10;0.10;;;11.60;99.90;;;;;;5050007;28;20020;-80
2023/12/12 07:49:58;;;;;;;0.00;0.00;;;11.50;99.90;;;;;;5049648;28;20519;-81
2023/12/12 07:52:24;;;;;;;0.10;0.10;;;11.60;99.90;;;;;;5050069;28;20430;-80
2023/12/12 07:54:49;;;;;;;0.00;0.00;;;11.60;99.90;;;;;;5050026;28;20448;-81
2023/12/12 07:57:15;;;;;;;0.10;0.10;;;11.60;99.90;;;;;;5032455;28;20037;-81
2023/12/12 07:59:42;;;;;;;0.00;0.00;;;11.60;99.90;;;;;;5049713;28;20028;-80
2023/12/12 08:02:08;;;;;;;0.00;0.00;;;11.60;99.90;;;;;;5049965;28;20029;-81
2023/12/12 08:04:33;;;;;;;0.10;0.10;;;11.60;99.90;;;;;;5049840;28;20106;-80
2023/12/12 08:07:01;;;;;;;0.10;0.10;;;11.60;99.90;;;;;;5049771;28;20025;-80
2023/12/12 08:09:29;;;;;;;0.00;0.00;;;11.60;99.90;;;;;;5049706;28;20025;-80
2023/12/12 08:11:55;;;;;;;0.10;0.10;;;11.60;99.90;;;;;;5049564;28;20080;-80
2023/12/12 08:14:21;;;;;;;0.00;0.00;;;11.60;99.90;;;;;;5049625;28;20032;-80
2023/12/12 08:16:47;;;;;;;0.00;0.00;;;11.60;99.90;;;;;;5049686;28;20037;-81
2023/12/12 08:19:13;;;;;;;0.93;0.40;;;11.60;99.90;;;;;;5031619;28;20033;-80
2023/12/12 08:21:40;;;;;;;1.65;1.55;;;11.70;99.90;;;;;;5049754;28;20033;-80
2023/12/12 08:24:06;;;;;;;0.10;0.10;;;11.70;99.90;;;;;;5031914;28;20959;-80
2023/12/12 08:26:42;;;;;;;1.00;0.67;;;11.70;99.90;;;;;;5031616;28;20025;-80
2023/12/12 08:29:12;;;;;;;0.30;0.30;;;11.70;99.90;;;;;;5032094;28;20123;-81
2023/12/12 08:31:38;;;;;;;0.20;0.20;;;11.80;99.90;;;;;;5049530;28;20048;-80
2023/12/12 08:34:04;;;;;;;3.83;1.40;;;11.80;99.90;;;;;;5049416;28;20039;-81
2023/12/12 08:36:29;;;;;;;0.23;0.23;;;11.90;99.90;;;;;;5049296;28;20064;-80
2023/12/12 08:38:57;;;;;;;0.10;0.10;;;11.90;99.90;;;;;;5048910;28;20129;-80
2023/12/12 08:41:22;;;;;;;0.00;0.00;;;11.90;99.90;;;;;;5048583;28;20091;-80
2023/12/12 08:43:48;;;;;;;2.50;2.33;;;12.00;99.90;;;;;;5048748;28;20086;-80
2023/12/12 08:46:14;;;;;;;0.97;0.97;;;11.80;99.90;;;;;;5048457;28;20025;-80
2023/12/12 08:48:39;;;;;;;0.00;0.00;;;11.70;99.90;;;;;;5048835;28;20017;-80
2023/12/12 08:51:05;;;;;;;0.00;0.00;;;11.80;99.90;;;;;;5031249;28;20094;-80
2023/12/12 08:53:31;;;;;;;0.43;0.43;;;11.80;99.90;;;;;;5031388;28;20028;-80
2023/12/12 08:55:57;;;;;;;0.10;0.10;;;11.80;99.90;;;;;;5048188;28;20113;-80
2023/12/12 08:58:23;;;;;;;2.17;1.60;;;11.80;99.90;;;;;;5048576;28;20029;-80
2023/12/12 09:00:51;;;;;;;0.10;0.10;;;11.80;99.90;;;;;;5047962;28;20037;-80
2023/12/12 09:03:17;;;;;;;0.00;0.00;;;11.90;99.90;;;;;;5048860;28;20033;-80
2023/12/12 09:05:42;;;;;;;0.13;0.13;;;11.90;99.90;;;;;;5047952;28;20392;-80
2023/12/12 09:08:08;;;;;;;0.43;0.43;;;11.90;99.90;;;;;;5048277;28;20052;-80
2023/12/12 09:10:34;;;;;;;0.33;0.33;;;11.90;99.90;;;;;;5030449;28;20029;-80
2023/12/12 09:13:00;;;;;;;0.00;0.00;;;11.90;99.90;;;;;;5047682;28;20029;-80
2023/12/12 09:15:25;;;;;;;1.43;1.40;;;12.00;99.90;;;;;;5047785;28;20025;-80
2023/12/12 09:17:51;;;;;;;0.10;0.10;;;12.00;99.90;;;;;;5048780;28;20757;-80
2023/12/12 09:20:17;;;;;;;0.00;0.00;;;11.90;99.90;;;;;;5048336;28;20044;-80
2023/12/12 09:22:42;;;;;;;0.00;0.00;;;11.90;99.90;;;;;;5048624;28;20057;-80
2023/12/12 09:25:08;;;;;;;0.00;0.00;;;11.80;99.90;;;;;;5047636;28;20032;-80
2023/12/12 09:27:34;;;;;;;0.00;0.00;;;11.90;99.90;;;;;;5048154;28;20067;-80
2023/12/12 09:29:59;;;;;;;0.10;0.10;;;11.90;99.90;;;;;;5047540;28;20068;-81
2023/12/12 09:32:25;;;;;;;0.53;0.53;;;11.90;99.90;;;;;;5048258;28;20325;-80
2023/12/12 09:34:51;;;;;;;0.00;0.00;;;11.90;99.90;;;;;;5047414;28;20028;-81
2023/12/12 09:37:16;;;;;;;0.10;0.10;;;11.90;99.90;;;;;;5048418;28;20515;-80
2023/12/12 09:39:42;;;;;;;0.00;0.00;;;12.00;99.90;;;;;;5028926;28;20571;-80
2023/12/12 09:42:12;;;;;;;0.00;0.00;;;12.00;99.90;;;;;;5047977;28;20033;-80
2023/12/12 09:44:42;;;;;;;0.38;0.35;;;12.00;99.90;;;;;;5029618;28;20032;-81
2023/12/12 09:47:09;;;;;;;0.17;0.17;;;12.00;99.90;;;;;;5031317;28;20070;-80
2023/12/12 09:49:36;;;;;;;0.10;0.10;;;12.00;99.90;;;;;;5048217;28;20063;-80
2023/12/12 09:52:02;;;;;;;0.00;0.00;;;12.00;99.90;;;;;;5048298;28;20488;-80
2023/12/12 09:54:29;;;;;;;0.10;0.10;;;12.00;99.90;;;;;;5029706;28;20033;-80
2023/12/12 09:56:55;;;;;;;0.00;0.00;;;12.10;99.90;;;;;;5047795;28;20079;-80
2023/12/12 09:59:20;;;;;;;0.10;0.10;;;12.10;99.90;;;;;;5047479;28;20033;-81
2023/12/12 10:01:49;;;;;;;0.50;0.50;;;12.00;99.90;;;;;;5047680;28;20108;-80
2023/12/12 10:04:18;;;;;;;0.10;0.10;;;12.00;99.90;;;;;;5047252;28;20702;-80
2023/12/12 10:06:49;;;;;;;1.52;0.80;;;11.90;99.90;;;;;;5047429;28;20025;-80
2023/12/12 10:09:15;;;;;;;0.10;0.10;;;11.90;99.90;;;;;;5045882;28;20024;-80
2023/12/12 10:11:41;;;;;;;0.10;0.10;;;11.90;99.90;;;;;;5046970;28;20044;-80
2023/12/12 10:14:08;;;;;;;0.03;0.03;;;11.90;99.90;;;;;;5044673;28;20151;-81
2023/12/12 10:16:34;;;;;;;0.10;0.10;;;11.90;99.90;;;;;;5046939;28;20032;-80
2023/12/12 10:19:01;;;;;;;0.00;0.00;;;11.90;99.90;;;;;;5029161;28;20488;-80
2023/12/12 10:21:28;;;;;;;0.03;0.03;;;11.80;99.90;;;;;;5028852;28;20515;-80
2023/12/12 10:23:54;;;;;;;0.30;0.30;;;11.80;99.90;;;;;;5046949;28;20056;-80
2023/12/12 10:26:25;;;;;;;0.10;0.10;;;11.90;99.90;;;;;;5046471;28;20032;-80
2023/12/12 10:28:54;;;;;;;0.30;0.30;;;11.90;99.90;;;;;;5046371;28;20024;-80
2023/12/12 10:31:20;;;;;;;0.00;0.00;;;11.90;99.90;;;;;;5046231;28;20060;-80
2023/12/12 10:33:46;;;;;;;0.67;0.67;;;12.00;99.90;;;;;;5046687;28;20029;-80
2023/12/12 10:36:12;;;;;;;0.10;0.10;;;12.00;99.90;;;;;;5029239;28;20085;-80
2023/12/12 10:38:39;;;;;;;0.00;0.00;;;11.90;99.90;;;;;;5046684;28;20519;-80
2023/12/12 10:41:14;;;;;;;0.63;0.63;;;11.90;99.90;;;;;;5045891;28;20043;-80
2023/12/12 10:43:42;;;;;;;0.00;0.00;;;11.90;99.90;;;;;;5029020;28;20639;-80
2023/12/12 10:46:14;;;;;;;0.10;0.10;;;11.90;99.90;;;;;;5045932;28;20090;-80
2023/12/12 10:48:43;;;;;;;0.00;0.00;;;11.90;99.90;;;;;;5046686;28;20071;-80
2023/12/12 10:51:11;;;;;;;0.10;0.10;;;11.90;99.90;;;;;;5029074;28;20094;-80
2023/12/12 10:53:37;;;;;;;0.10;0.10;;;11.80;99.90;;;;;;5047276;28;20036;-80
2023/12/12 10:56:05;;;;;;;0.20;0.20;;;11.80;99.90;;;;;;5046301;28;20029;-80
2023/12/12 10:58:31;;;;;;;0.30;0.30;;;11.80;99.90;;;;;;5042211;28;20040;-80
2023/12/12 11:00:58;;;;;;;0.00;0.00;;;11.80;99.90;;;;;;5046495;28;20033;-80
2023/12/12 11:03:24;;;;;;;;;;;11.80;99.90;;;;;;5047155;28;20079;-80
2023/12/12 11:05:50;;;;;;;0.08;0.08;;;11.80;99.90;;;;;;5028843;28;19908;-80
2023/12/12 11:08:18;;;;;;;0.10;0.10;;;11.80;99.90;;;;;;5029313;28;20029;-80
2023/12/12 11:10:46;;;;;;;0.13;0.13;;;11.80;99.90;;;;;;5047203;28;20143;-80
2023/12/12 11:13:15;;;;;;;0.10;0.10;;;11.70;99.90;;;;;;5044770;28;20028;-80
2023/12/12 11:15:43;;;;;;;0.10;0.10;;;11.80;99.90;;;;;;5029257;28;20061;-80
2023/12/12 11:18:10;;;;;;;0.52;0.52;;;11.70;99.90;;;;;;5043489;28;20504;-80
2023/12/12 11:20:36;;;;;;;;;;;11.70;99.90;;;;;;5050077;28;20032;-80
2023/12/12 11:23:05;;;;;;;0.30;0.30;;;11.70;99.90;;;;;;5032835;28;19908;-80
2023/12/12 11:25:31;;;;;;;0.22;0.22;;;11.80;99.90;;;;;;5066002;28;20038;-80
2023/12/12 11:28:01;;;;;;;0.47;0.47;;;11.70;99.90;;;;;;5050013;28;20614;-80
2023/12/12 11:30:38;;;;;;;0.13;0.13;;;11.70;99.90;;;;;;5050471;28;20708;-80
2023/12/12 11:33:11;;;;;;;1.75;1.27;;;11.80;99.90;;;;;;5050499;28;20083;-80
2023/12/12 11:35:36;;;;;;;0.43;0.43;;;11.80;99.90;;;;;;5032754;28;20606;-80
2023/12/12 11:38:25;;;;;;;0.00;0.00;;;11.80;99.90;;;;;;5049101;28;20033;-80
2023/12/12 11:41:13;;;;;;;0.00;0.00;;;11.90;99.90;;;;;;5031182;28;20521;-80
2023/12/12 11:43:41;;;;;;;0.00;0.00;;;11.80;99.90;;;;;;5044994;28;20025;-80
2023/12/12 11:46:21;;;;;;;0.05;0.05;;;11.70;99.90;;;;;;5031593;28;20048;-80
2023/12/12 11:48:47;;;;;;;0.28;0.28;;;11.80;99.90;;;;;;5031884;28;20032;-80
2023/12/12 11:51:34;;;;;;;0.08;0.08;;;11.80;99.90;;;;;;5049592;28;20033;-80
2023/12/12 11:54:06;;;;;;;0.73;0.73;;;11.90;99.90;;;;;;5049174;28;20039;-80
2023/12/12 11:56:33;;;;;;;0.05;0.05;;;12.00;99.90;;;;;;5031705;28;20029;-80
2023/12/12 11:59:02;;;;;;;0.10;0.10;;;11.80;99.90;;;;;;5048952;28;20044;-80
2023/12/12 12:01:27;;;;;;;0.00;0.00;;;11.80;99.90;;;;;;5049482;28;20052;-80
2023/12/12 12:03:53;;;;;;;0.00;0.00;;;11.60;99.90;;;;;;5049472;28;20025;-80
2023/12/12 12:06:20;;;;;;;0.00;0.00;;;11.70;99.90;;;;;;5049329;28;20092;-80
2023/12/12 12:08:50;;;;;;;;;;;11.60;99.90;;;;;;5049908;28;20024;-80
2023/12/12 12:11:16;;;;;;;0.00;0.00;;;11.50;99.90;;;;;;5031596;28;19924;-80
2023/12/12 12:13:42;;;;;;;1.10;1.10;;;11.40;99.90;;;;;;5042532;28;20032;-80
2023/12/12 12:16:09;;;;;;;0.10;0.10;;;11.40;99.90;;;;;;5048771;28;20723;-80
2023/12/12 12:18:35;;;;;;;0.00;0.00;;;11.40;99.90;;;;;;5048367;28;20033;-79
2023/12/12 12:21:03;;;;;;;0.00;0.00;;;11.40;99.90;;;;;;5049131;28;20032;-80
2023/12/12 12:23:30;;;;;;;0.10;0.10;;;11.40;99.90;;;;;;5048713;28;20060;-80
2023/12/12 12:25:59;;;;;;;0.10;0.10;;;11.40;99.90;;;;;;5038594;28;20039;-80
2023/12/12 12:28:32;;;;;;;0.10;0.10;;;11.30;99.90;;;;;;5048948;28;20072;-79
2023/12/12 12:31:00;;;;;;;0.10;0.10;;;11.40;99.90;;;;;;5029508;28;20135;-79
2023/12/12 12:33:33;;;;;;;0.10;0.10;;;11.40;99.90;;;;;;5049272;28;20040;-80
2023/12/12 12:35:59;;;;;;;0.10;0.10;;;11.40;99.90;;;;;;5048796;28;20033;-80
2023/12/12 12:38:25;;;;;;;0.10;0.10;;;11.40;99.90;;;;;;5049121;28;20031;-80
2023/12/12 12:40:51;;;;;;;;;;;11.40;99.90;;;;;;5049466;28;20585;-80
2023/12/12 12:43:17;;;;;;;0.00;0.00;;;11.40;99.90;;;;;;5031198;28;20003;-80